sensor_id;sensor_type;location;lat;lon;timestamp;pressure;altitude;pressure_sealevel;temperature;humidity
55755;BME280;41674;52.290;-1.474;2022-09-23T00:00:12;100954.12;;;16.03;84.45
55755;BME280;41674;52.290;-1.474;2022-09-23T00:02:40;100948.86;;;15.70;87.30
55755;BME280;41674;52.290;-1.474;2022-09-23T00:05:10;100948.80;;;16.40;85.96
55755;BME280;41674;52.290;-1.474;2022-09-23T00:07:39;100950.86;;;16.27;86.02
55755;BME280;41674;52.290;-1.474;2022-09-23T00:10:09;100946.94;;;16.87;83.61
55755;BME280;41674;52.290;-1.474;2022-09-23T00:12:39;100952.18;;;16.06;87.30
55755;BME280;41674;52.290;-1.474;2022-09-23T00:15:09;100952.42;;;16.39;86.45
55755;BME280;41674;52.290;-1.474;2022-09-23T00:17:38;100947.73;;;17.20;84.36
55755;BME280;41674;52.290;-1.474;2022-09-23T00:20:08;100950.79;;;16.38;87.30
55755;BME280;41674;52.290;-1.474;2022-09-23T00:25:08;100949.57;;;16.68;85.78
55755;BME280;41674;52.290;-1.474;2022-09-23T00:27:36;100952.05;;;16.17;88.30
55755;BME280;41674;52.290;-1.474;2022-09-23T00:30:07;100952.34;;;16.36;87.54
55755;BME280;41674;52.290;-1.474;2022-09-23T00:32:35;100950.44;;;15.98;87.60
55755;BME280;41674;52.290;-1.474;2022-09-23T00:35:05;100946.61;;;16.35;86.97
55755;BME280;41674;52.290;-1.474;2022-09-23T00:37:33;100941.13;;;17.02;84.19
55755;BME280;41674;52.290;-1.474;2022-09-23T00:40:08;100941.84;;;17.40;83.25
55755;BME280;41674;52.290;-1.474;2022-09-23T00:42:32;100939.02;;;17.62;82.13
55755;BME280;41674;52.290;-1.474;2022-09-23T00:45:02;100940.20;;;17.30;82.24
55755;BME280;41674;52.290;-1.474;2022-09-23T00:47:34;100936.01;;;17.31;82.20
55755;BME280;41674;52.290;-1.474;2022-09-23T00:50:05;100930.98;;;17.62;81.08
55755;BME280;41674;52.290;-1.474;2022-09-23T00:52:30;100930.45;;;17.08;82.69
55755;BME280;41674;52.290;-1.474;2022-09-23T00:55:03;100929.96;;;16.58;83.68
55755;BME280;41674;52.290;-1.474;2022-09-23T00:57:30;100927.38;;;17.12;82.30
55755;BME280;41674;52.290;-1.474;2022-09-23T00:59:59;100924.33;;;17.31;81.69
55755;BME280;41674;52.290;-1.474;2022-09-23T01:02:28;100919.36;;;16.95;82.26
55755;BME280;41674;52.290;-1.474;2022-09-23T01:04:58;100922.72;;;17.57;81.51
55755;BME280;41674;52.290;-1.474;2022-09-23T01:09:57;100916.44;;;17.46;80.73
55755;BME280;41674;52.290;-1.474;2022-09-23T01:12:38;100917.77;;;17.83;79.48
55755;BME280;41674;52.290;-1.474;2022-09-23T01:15:01;100922.92;;;17.35;79.64
55755;BME280;41674;52.290;-1.474;2022-09-23T01:17:31;100926.33;;;17.71;79.29
55755;BME280;41674;52.290;-1.474;2022-09-23T01:20:07;100926.83;;;18.08;79.60
55755;BME280;41674;52.290;-1.474;2022-09-23T01:22:30;100922.40;;;17.90;79.43
55755;BME280;41674;52.290;-1.474;2022-09-23T01:25:06;100923.31;;;18.23;79.28
55755;BME280;41674;52.290;-1.474;2022-09-23T01:27:35;100925.29;;;18.09;78.84
55755;BME280;41674;52.290;-1.474;2022-09-23T01:30:07;100927.54;;;17.76;78.68
55755;BME280;41674;52.290;-1.474;2022-09-23T01:32:29;100927.57;;;18.33;77.44
55755;BME280;41674;52.290;-1.474;2022-09-23T01:34:58;100926.86;;;18.39;77.03
55755;BME280;41674;52.290;-1.474;2022-09-23T01:37:25;100926.43;;;18.75;76.18
55755;BME280;41674;52.290;-1.474;2022-09-23T01:39:56;100925.85;;;18.64;75.72
55755;BME280;41674;52.290;-1.474;2022-09-23T01:42:25;100927.52;;;18.84;74.97
55755;BME280;41674;52.290;-1.474;2022-09-23T01:44:54;100927.25;;;19.25;74.51
55755;BME280;41674;52.290;-1.474;2022-09-23T01:47:24;100924.81;;;18.79;74.13
55755;BME280;41674;52.290;-1.474;2022-09-23T01:49:51;100922.49;;;19.09;73.78
55755;BME280;41674;52.290;-1.474;2022-09-23T01:52:24;100922.74;;;19.11;73.78
55755;BME280;41674;52.290;-1.474;2022-09-23T01:54:52;100922.96;;;18.52;74.21
55755;BME280;41674;52.290;-1.474;2022-09-23T01:57:22;100921.07;;;18.84;73.62
55755;BME280;41674;52.290;-1.474;2022-09-23T01:59:50;100920.83;;;18.19;75.65
55755;BME280;41674;52.290;-1.474;2022-09-23T02:02:19;100914.98;;;17.57;77.68
55755;BME280;41674;52.290;-1.474;2022-09-23T02:04:49;100915.68;;;17.91;76.20
55755;BME280;41674;52.290;-1.474;2022-09-23T02:07:19;100912.92;;;17.61;77.81
55755;BME280;41674;52.290;-1.474;2022-09-23T02:09:49;100908.43;;;17.82;77.38
55755;BME280;41674;52.290;-1.474;2022-09-23T02:12:19;100907.91;;;17.56;78.05
55755;BME280;41674;52.290;-1.474;2022-09-23T02:14:47;100908.81;;;17.92;76.54
55755;BME280;41674;52.290;-1.474;2022-09-23T02:17:16;100910.45;;;17.95;76.32
55755;BME280;41674;52.290;-1.474;2022-09-23T02:19:45;100910.04;;;17.36;78.41
55755;BME280;41674;52.290;-1.474;2022-09-23T02:22:15;100909.41;;;16.93;79.69
55755;BME280;41674;52.290;-1.474;2022-09-23T02:24:41;100909.47;;;17.26;79.47
55755;BME280;41674;52.290;-1.474;2022-09-23T02:27:17;100912.38;;;17.40;77.97
55755;BME280;41674;52.290;-1.474;2022-09-23T02:29:47;100910.88;;;17.59;77.28
55755;BME280;41674;52.290;-1.474;2022-09-23T02:32:13;100912.61;;;16.92;79.02
55755;BME280;41674;52.290;-1.474;2022-09-23T02:34:43;100918.82;;;16.64;80.04
55755;BME280;41674;52.290;-1.474;2022-09-23T02:37:17;100922.68;;;16.60;80.02
55755;BME280;41674;52.290;-1.474;2022-09-23T02:39:47;100929.63;;;15.10;84.95
55755;BME280;41674;52.290;-1.474;2022-09-23T02:42:11;100931.52;;;15.88;83.64
55755;BME280;41674;52.290;-1.474;2022-09-23T02:44:36;100932.16;;;16.58;82.37
55755;BME280;41674;52.290;-1.474;2022-09-23T02:47:05;100929.46;;;16.67;80.58
55755;BME280;41674;52.290;-1.474;2022-09-23T02:49:34;100928.87;;;17.33;79.24
55755;BME280;41674;52.290;-1.474;2022-09-23T02:52:05;100928.00;;;16.97;79.83
55755;BME280;41674;52.290;-1.474;2022-09-23T02:54:34;100929.00;;;16.48;80.47
55755;BME280;41674;52.290;-1.474;2022-09-23T02:57:05;100935.75;;;16.41;81.79
55755;BME280;41674;52.290;-1.474;2022-09-23T02:59:34;100939.76;;;16.11;82.23
55755;BME280;41674;52.290;-1.474;2022-09-23T03:02:16;100936.30;;;15.86;84.35
55755;BME280;41674;52.290;-1.474;2022-09-23T03:04:39;100938.32;;;15.20;86.23
55755;BME280;41674;52.290;-1.474;2022-09-23T03:07:05;100938.92;;;14.73;89.07
55755;BME280;41674;52.290;-1.474;2022-09-23T03:09:34;100939.46;;;14.57;88.97
55755;BME280;41674;52.290;-1.474;2022-09-23T03:12:08;100937.59;;;14.88;87.50
55755;BME280;41674;52.290;-1.474;2022-09-23T03:14:40;100939.43;;;15.17;86.39
55755;BME280;41674;52.290;-1.474;2022-09-23T03:17:03;100940.64;;;15.13;87.11
55755;BME280;41674;52.290;-1.474;2022-09-23T03:19:31;100945.19;;;15.05;87.77
55755;BME280;41674;52.290;-1.474;2022-09-23T03:22:02;100947.02;;;14.91;88.48
55755;BME280;41674;52.290;-1.474;2022-09-23T03:24:29;100945.84;;;14.94;90.39
55755;BME280;41674;52.290;-1.474;2022-09-23T03:27:01;100945.12;;;14.57;89.10
55755;BME280;41674;52.290;-1.474;2022-09-23T03:29:27;100945.04;;;15.73;84.32
55755;BME280;41674;52.290;-1.474;2022-09-23T03:31:56;100946.82;;;15.14;84.32
55755;BME280;41674;52.290;-1.474;2022-09-23T03:34:28;100944.33;;;16.23;81.52
55755;BME280;41674;52.290;-1.474;2022-09-23T03:36:57;100941.24;;;16.55;79.59
55755;BME280;41674;52.290;-1.474;2022-09-23T03:39:35;100937.70;;;16.66;78.28
55755;BME280;41674;52.290;-1.474;2022-09-23T03:41:56;100938.36;;;16.47;79.29
55755;BME280;41674;52.290;-1.474;2022-09-23T03:44:22;100937.12;;;16.02;80.33
55755;BME280;41674;52.290;-1.474;2022-09-23T03:46:51;100933.73;;;16.17;81.14
55755;BME280;41674;52.290;-1.474;2022-09-23T03:49:26;100933.33;;;15.87;81.48
55755;BME280;41674;52.290;-1.474;2022-09-23T03:51:50;100935.64;;;15.75;81.44
55755;BME280;41674;52.290;-1.474;2022-09-23T03:54:20;100937.43;;;15.77;82.04
55755;BME280;41674;52.290;-1.474;2022-09-23T03:56:49;100938.04;;;15.97;80.90
55755;BME280;41674;52.290;-1.474;2022-09-23T03:59:19;100937.81;;;15.95;81.19
55755;BME280;41674;52.290;-1.474;2022-09-23T04:01:48;100938.70;;;15.36;81.59
55755;BME280;41674;52.290;-1.474;2022-09-23T04:04:18;100932.36;;;16.54;78.84
55755;BME280;41674;52.290;-1.474;2022-09-23T04:06:48;100931.48;;;16.51;77.89
55755;BME280;41674;52.290;-1.474;2022-09-23T04:09:17;100933.41;;;16.17;77.99
55755;BME280;41674;52.290;-1.474;2022-09-23T04:11:48;100931.33;;;16.03;79.79
55755;BME280;41674;52.290;-1.474;2022-09-23T04:14:18;100930.39;;;15.75;79.85
55755;BME280;41674;52.290;-1.474;2022-09-23T04:16:47;100927.91;;;15.42;81.03
55755;BME280;41674;52.290;-1.474;2022-09-23T04:19:16;100926.34;;;15.12;81.87
55755;BME280;41674;52.290;-1.474;2022-09-23T04:21:45;100926.42;;;15.29;83.06
55755;BME280;41674;52.290;-1.474;2022-09-23T04:24:15;100926.05;;;15.34;82.87
55755;BME280;41674;52.290;-1.474;2022-09-23T04:26:43;100928.62;;;15.57;81.01
55755;BME280;41674;52.290;-1.474;2022-09-23T04:29:13;100928.63;;;15.56;81.07
55755;BME280;41674;52.290;-1.474;2022-09-23T04:31:42;100927.58;;;15.50;81.06
55755;BME280;41674;52.290;-1.474;2022-09-23T04:34:11;100930.46;;;15.99;79.72
55755;BME280;41674;52.290;-1.474;2022-09-23T04:36:41;100928.16;;;16.23;77.80
55755;BME280;41674;52.290;-1.474;2022-09-23T04:39:11;100929.07;;;16.60;76.73
55755;BME280;41674;52.290;-1.474;2022-09-23T04:41:41;100924.03;;;16.70;75.61
55755;BME280;41674;52.290;-1.474;2022-09-23T04:44:10;100925.20;;;16.28;76.61
55755;BME280;41674;52.290;-1.474;2022-09-23T04:46:40;100925.92;;;16.62;75.45
55755;BME280;41674;52.290;-1.474;2022-09-23T04:49:09;100924.27;;;17.23;74.63
55755;BME280;41674;52.290;-1.474;2022-09-23T04:51:38;100928.08;;;17.08;74.50
55755;BME280;41674;52.290;-1.474;2022-09-23T04:54:08;100930.08;;;16.81;74.95
55755;BME280;41674;52.290;-1.474;2022-09-23T04:56:37;100928.60;;;16.87;74.64
55755;BME280;41674;52.290;-1.474;2022-09-23T04:59:07;100936.08;;;15.88;78.01
55755;BME280;41674;52.290;-1.474;2022-09-23T05:01:36;100935.54;;;15.35;81.15
55755;BME280;41674;52.290;-1.474;2022-09-23T05:04:07;100937.18;;;15.59;80.97
55755;BME280;41674;52.290;-1.474;2022-09-23T05:06:36;100940.29;;;15.43;81.49
55755;BME280;41674;52.290;-1.474;2022-09-23T05:09:06;100944.23;;;15.52;80.56
55755;BME280;41674;52.290;-1.474;2022-09-23T05:11:34;100948.50;;;15.19;82.28
55755;BME280;41674;52.290;-1.474;2022-09-23T05:14:03;100948.98;;;14.95;83.15
55755;BME280;41674;52.290;-1.474;2022-09-23T05:16:33;100954.05;;;15.45;81.72
55755;BME280;41674;52.290;-1.474;2022-09-23T05:19:02;100957.04;;;16.27;79.98
55755;BME280;41674;52.290;-1.474;2022-09-23T05:21:31;100958.67;;;16.27;79.58
55755;BME280;41674;52.290;-1.474;2022-09-23T05:24:01;100960.09;;;16.61;78.69
55755;BME280;41674;52.290;-1.474;2022-09-23T05:26:31;100961.06;;;16.82;78.01
55755;BME280;41674;52.290;-1.474;2022-09-23T05:28:59;100961.71;;;16.64;77.51
55755;BME280;41674;52.290;-1.474;2022-09-23T05:31:29;100957.83;;;16.74;77.20
55755;BME280;41674;52.290;-1.474;2022-09-23T05:33:59;100959.68;;;16.72;77.36
55755;BME280;41674;52.290;-1.474;2022-09-23T05:36:30;100960.17;;;17.07;77.08
55755;BME280;41674;52.290;-1.474;2022-09-23T05:38:57;100960.78;;;16.95;77.02
55755;BME280;41674;52.290;-1.474;2022-09-23T05:41:27;100962.20;;;16.99;76.19
55755;BME280;41674;52.290;-1.474;2022-09-23T05:43:56;100959.75;;;16.99;75.37
55755;BME280;41674;52.290;-1.474;2022-09-23T05:46:27;100958.70;;;17.19;73.91
55755;BME280;41674;52.290;-1.474;2022-09-23T05:48:56;100960.27;;;17.65;72.92
55755;BME280;41674;52.290;-1.474;2022-09-23T05:51:26;100960.33;;;18.02;72.39
55755;BME280;41674;52.290;-1.474;2022-09-23T05:53:55;100958.80;;;17.85;71.59
55755;BME280;41674;52.290;-1.474;2022-09-23T05:56:25;100957.71;;;17.46;71.33
55755;BME280;41674;52.290;-1.474;2022-09-23T05:58:54;100956.48;;;17.40;70.93
55755;BME280;41674;52.290;-1.474;2022-09-23T06:01:24;100958.58;;;17.39;70.77
55755;BME280;41674;52.290;-1.474;2022-09-23T06:03:54;100959.37;;;17.52;70.95
55755;BME280;41674;52.290;-1.474;2022-09-23T06:06:26;100960.17;;;17.29;70.56
55755;BME280;41674;52.290;-1.474;2022-09-23T06:08:52;100964.63;;;17.09;70.90
55755;BME280;41674;52.290;-1.474;2022-09-23T06:11:21;100966.05;;;17.33;70.97
55755;BME280;41674;52.290;-1.474;2022-09-23T06:13:54;100967.70;;;17.20;70.77
55755;BME280;41674;52.290;-1.474;2022-09-23T06:16:20;100968.95;;;17.25;70.57
55755;BME280;41674;52.290;-1.474;2022-09-23T06:18:49;100972.51;;;16.85;70.61
55755;BME280;41674;52.290;-1.474;2022-09-23T06:21:18;100971.10;;;17.20;70.34
55755;BME280;41674;52.290;-1.474;2022-09-23T06:23:48;100976.91;;;16.70;71.32
55755;BME280;41674;52.290;-1.474;2022-09-23T06:26:17;100977.63;;;17.06;70.56
55755;BME280;41674;52.290;-1.474;2022-09-23T06:28:47;100981.52;;;17.28;70.20
55755;BME280;41674;52.290;-1.474;2022-09-23T06:31:17;100983.29;;;17.00;70.51
55755;BME280;41674;52.290;-1.474;2022-09-23T06:33:48;100985.23;;;17.05;70.41
55755;BME280;41674;52.290;-1.474;2022-09-23T06:36:15;100987.17;;;16.92;70.77
55755;BME280;41674;52.290;-1.474;2022-09-23T06:38:45;100988.43;;;16.43;71.15
55755;BME280;41674;52.290;-1.474;2022-09-23T06:41:14;100992.16;;;17.16;70.97
55755;BME280;41674;52.290;-1.474;2022-09-23T06:43:44;100995.03;;;16.43;72.08
55755;BME280;41674;52.290;-1.474;2022-09-23T06:46:14;100996.97;;;16.61;72.89
55755;BME280;41674;52.290;-1.474;2022-09-23T06:48:42;100998.25;;;16.71;71.65
55755;BME280;41674;52.290;-1.474;2022-09-23T06:51:12;101006.13;;;16.68;72.65
55755;BME280;41674;52.290;-1.474;2022-09-23T06:53:41;101007.82;;;16.32;73.79
55755;BME280;41674;52.290;-1.474;2022-09-23T06:56:12;101007.35;;;15.99;74.66
55755;BME280;41674;52.290;-1.474;2022-09-23T06:58:40;101008.85;;;16.12;74.52
55755;BME280;41674;52.290;-1.474;2022-09-23T07:01:12;101012.26;;;15.88;75.26
55755;BME280;41674;52.290;-1.474;2022-09-23T07:03:39;101015.04;;;16.10;75.14
55755;BME280;41674;52.290;-1.474;2022-09-23T07:06:08;101012.58;;;15.77;75.15
55755;BME280;41674;52.290;-1.474;2022-09-23T07:08:41;101013.84;;;15.90;75.69
55755;BME280;41674;52.290;-1.474;2022-09-23T07:11:08;101013.48;;;16.12;75.96
55755;BME280;41674;52.290;-1.474;2022-09-23T07:13:37;101017.67;;;16.23;75.67
55755;BME280;41674;52.290;-1.474;2022-09-23T07:16:07;101023.03;;;16.60;74.92
55755;BME280;41674;52.290;-1.474;2022-09-23T07:18:36;101026.18;;;16.59;75.95
55755;BME280;41674;52.290;-1.474;2022-09-23T07:21:07;101025.59;;;15.43;78.83
55755;BME280;41674;52.290;-1.474;2022-09-23T07:23:34;101031.14;;;14.81;82.35
55755;BME280;41674;52.290;-1.474;2022-09-23T07:26:05;101029.09;;;15.34;81.49
55755;BME280;41674;52.290;-1.474;2022-09-23T07:28:33;101032.75;;;13.88;87.53
55755;BME280;41674;52.290;-1.474;2022-09-23T07:31:04;101038.14;;;14.40;86.41
55755;BME280;41674;52.290;-1.474;2022-09-23T07:33:32;101037.65;;;14.66;86.45
55755;BME280;41674;52.290;-1.474;2022-09-23T07:36:06;101038.15;;;14.65;87.77
55755;BME280;41674;52.290;-1.474;2022-09-23T07:38:32;101041.72;;;14.13;90.32
55755;BME280;41674;52.290;-1.474;2022-09-23T07:41:02;101047.87;;;14.17;90.83
55755;BME280;41674;52.290;-1.474;2022-09-23T07:43:31;101050.92;;;13.92;91.81
55755;BME280;41674;52.290;-1.474;2022-09-23T07:46:00;101050.94;;;13.48;92.93
55755;BME280;41674;52.290;-1.474;2022-09-23T07:48:30;101050.20;;;13.55;93.62
55755;BME280;41674;52.290;-1.474;2022-09-23T07:51:06;101054.07;;;13.50;94.01
55755;BME280;41674;52.290;-1.474;2022-09-23T07:53:28;101052.88;;;13.46;94.44
55755;BME280;41674;52.290;-1.474;2022-09-23T07:55:57;101053.21;;;14.23;91.22
55755;BME280;41674;52.290;-1.474;2022-09-23T07:58:26;101051.49;;;13.86;92.34
55755;BME280;41674;52.290;-1.474;2022-09-23T08:01:02;101056.45;;;14.32;91.54
55755;BME280;41674;52.290;-1.474;2022-09-23T08:03:25;101054.59;;;14.46;91.35
55755;BME280;41674;52.290;-1.474;2022-09-23T08:06:02;101056.27;;;13.59;92.93
55755;BME280;41674;52.290;-1.474;2022-09-23T08:08:23;101064.61;;;13.24;95.46
55755;BME280;41674;52.290;-1.474;2022-09-23T08:10:59;101066.24;;;13.09;97.18
55755;BME280;41674;52.290;-1.474;2022-09-23T08:13:23;101060.02;;;14.04;93.79
55755;BME280;41674;52.290;-1.474;2022-09-23T08:15:52;101065.92;;;13.39;94.70
55755;BME280;41674;52.290;-1.474;2022-09-23T08:18:22;101066.84;;;13.51;95.16
55755;BME280;41674;52.290;-1.474;2022-09-23T08:20:52;101069.30;;;14.15;92.36
55755;BME280;41674;52.290;-1.474;2022-09-23T08:23:21;101072.33;;;14.35;91.31
55755;BME280;41674;52.290;-1.474;2022-09-23T08:25:56;101074.19;;;14.08;89.80
55755;BME280;41674;52.290;-1.474;2022-09-23T08:28:20;101073.95;;;14.37;88.13
55755;BME280;41674;52.290;-1.474;2022-09-23T08:30:49;101072.66;;;14.55;88.59
55755;BME280;41674;52.290;-1.474;2022-09-23T08:33:18;101071.45;;;14.58;87.88
55755;BME280;41674;52.290;-1.474;2022-09-23T08:35:48;101076.97;;;13.88;91.28
55755;BME280;41674;52.290;-1.474;2022-09-23T08:38:18;101078.43;;;13.97;91.75
55755;BME280;41674;52.290;-1.474;2022-09-23T08:40:48;101079.45;;;13.96;91.09
55755;BME280;41674;52.290;-1.474;2022-09-23T08:43:21;101082.96;;;14.49;89.89
55755;BME280;41674;52.290;-1.474;2022-09-23T08:45:45;101087.84;;;13.94;89.04
55755;BME280;41674;52.290;-1.474;2022-09-23T08:48:18;101090.49;;;14.70;88.22
55755;BME280;41674;52.290;-1.474;2022-09-23T08:50:47;101089.80;;;13.88;91.01
55755;BME280;41674;52.290;-1.474;2022-09-23T08:53:22;101090.91;;;14.50;90.09
55755;BME280;41674;52.290;-1.474;2022-09-23T08:55:47;101092.67;;;14.08;91.08
55755;BME280;41674;52.290;-1.474;2022-09-23T08:58:27;101091.01;;;14.05;92.39
55755;BME280;41674;52.290;-1.474;2022-09-23T09:00:49;101093.00;;;13.53;91.84
55755;BME280;41674;52.290;-1.474;2022-09-23T09:03:19;101097.58;;;14.01;92.29
55755;BME280;41674;52.290;-1.474;2022-09-23T09:05:42;101098.25;;;14.31;89.43
55755;BME280;41674;52.290;-1.474;2022-09-23T09:08:12;101093.02;;;14.74;88.07
55755;BME280;41674;52.290;-1.474;2022-09-23T09:10:42;101090.93;;;14.73;86.19
55755;BME280;41674;52.290;-1.474;2022-09-23T09:13:19;101086.53;;;15.13;85.33
55755;BME280;41674;52.290;-1.474;2022-09-23T09:15:47;101086.32;;;15.35;85.30
55755;BME280;41674;52.290;-1.474;2022-09-23T09:18:15;101088.81;;;14.75;84.75
55755;BME280;41674;52.290;-1.474;2022-09-23T09:20:46;101089.93;;;14.61;84.32
55755;BME280;41674;52.290;-1.474;2022-09-23T09:23:20;101092.52;;;13.88;87.33
55755;BME280;41674;52.290;-1.474;2022-09-23T09:25:43;101090.46;;;13.85;86.87
55755;BME280;41674;52.290;-1.474;2022-09-23T09:28:14;101091.93;;;13.76;86.57
55755;BME280;41674;52.290;-1.474;2022-09-23T09:33:17;101088.30;;;14.55;82.48
55755;BME280;41674;52.290;-1.474;2022-09-23T09:38:06;101081.82;;;15.02;77.91
55755;BME280;41674;52.290;-1.474;2022-09-23T09:40:42;101077.29;;;14.30;79.14
55755;BME280;41674;52.290;-1.474;2022-09-23T09:43:06;101073.34;;;14.22;78.86
55755;BME280;41674;52.290;-1.474;2022-09-23T09:45:47;101073.32;;;14.31;78.55
55755;BME280;41674;52.290;-1.474;2022-09-23T09:48:09;101073.62;;;14.68;77.33
55755;BME280;41674;52.290;-1.474;2022-09-23T09:50:44;101069.87;;;14.71;73.86
55755;BME280;41674;52.290;-1.474;2022-09-23T09:53:14;101067.67;;;15.36;73.34
55755;BME280;41674;52.290;-1.474;2022-09-23T09:55:33;101068.95;;;14.75;74.42
55755;BME280;41674;52.290;-1.474;2022-09-23T09:58:04;101069.03;;;15.21;72.95
55755;BME280;41674;52.290;-1.474;2022-09-23T10:00:40;101065.84;;;15.13;71.86
55755;BME280;41674;52.290;-1.474;2022-09-23T10:03:04;101067.91;;;15.22;72.40
55755;BME280;41674;52.290;-1.474;2022-09-23T10:05:47;101070.94;;;14.73;71.28
55755;BME280;41674;52.290;-1.474;2022-09-23T10:10:30;101062.49;;;14.60;71.20
55755;BME280;41674;52.290;-1.474;2022-09-23T10:15:39;101057.06;;;14.99;70.37
55755;BME280;41674;52.290;-1.474;2022-09-23T10:17:59;101058.52;;;15.18;70.62
55755;BME280;41674;52.290;-1.474;2022-09-23T10:23:05;101055.61;;;14.18;71.49
55755;BME280;41674;52.290;-1.474;2022-09-23T10:25:27;101054.14;;;14.05;72.35
55755;BME280;41674;52.290;-1.474;2022-09-23T10:27:57;101055.43;;;14.29;70.18
55755;BME280;41674;52.290;-1.474;2022-09-23T10:30:27;101051.54;;;14.31;68.77
55755;BME280;41674;52.290;-1.474;2022-09-23T10:32:56;101053.39;;;14.64;67.42
55755;BME280;41674;52.290;-1.474;2022-09-23T10:35:25;101044.61;;;15.57;66.27
55755;BME280;41674;52.290;-1.474;2022-09-23T10:37:56;101040.36;;;15.32;65.48
55755;BME280;41674;52.290;-1.474;2022-09-23T10:40:33;101038.11;;;15.48;65.39
55755;BME280;41674;52.290;-1.474;2022-09-23T10:43:01;101036.17;;;15.73;65.77
55755;BME280;41674;52.290;-1.474;2022-09-23T10:45:26;101042.14;;;15.94;64.91
55755;BME280;41674;52.290;-1.474;2022-09-23T10:47:57;101036.51;;;16.08;62.12
55755;BME280;41674;52.290;-1.474;2022-09-23T10:50:33;101038.60;;;16.11;63.09
55755;BME280;41674;52.290;-1.474;2022-09-23T10:53:01;101035.88;;;15.82;61.41
55755;BME280;41674;52.290;-1.474;2022-09-23T10:55:30;101036.13;;;16.51;60.13
55755;BME280;41674;52.290;-1.474;2022-09-23T10:58:04;101035.94;;;16.44;60.36
55755;BME280;41674;52.290;-1.474;2022-09-23T11:00:22;101035.31;;;16.56;58.67
55755;BME280;41674;52.290;-1.474;2022-09-23T11:03:13;101041.69;;;16.14;59.18
55755;BME280;41674;52.290;-1.474;2022-09-23T11:05:29;101035.08;;;16.78;56.95
55755;BME280;41674;52.290;-1.474;2022-09-23T11:07:56;101036.16;;;16.65;58.47
55755;BME280;41674;52.290;-1.474;2022-09-23T11:12:59;101027.74;;;16.49;61.51
55755;BME280;41674;52.290;-1.474;2022-09-23T11:20:26;101024.14;;;16.68;59.87
55755;BME280;41674;52.290;-1.474;2022-09-23T11:22:59;101028.50;;;15.75;61.05
55755;BME280;41674;52.290;-1.474;2022-09-23T11:25:25;101026.47;;;16.14;59.85
55755;BME280;41674;52.290;-1.474;2022-09-23T11:27:58;101025.87;;;17.27;57.87
55755;BME280;41674;52.290;-1.474;2022-09-23T11:30:16;101024.16;;;16.60;56.25
55755;BME280;41674;52.290;-1.474;2022-09-23T11:33:02;101021.42;;;16.33;59.44
55755;BME280;41674;52.290;-1.474;2022-09-23T11:35:18;101021.47;;;17.28;57.41
55755;BME280;41674;52.290;-1.474;2022-09-23T11:37:46;101016.75;;;17.58;55.75
55755;BME280;41674;52.290;-1.474;2022-09-23T11:40:17;101014.79;;;18.13;54.76
55755;BME280;41674;52.290;-1.474;2022-09-23T11:42:50;101016.61;;;18.13;52.76
55755;BME280;41674;52.290;-1.474;2022-09-23T11:45:16;101022.28;;;17.28;53.31
55755;BME280;41674;52.290;-1.474;2022-09-23T11:47:44;101026.48;;;16.85;54.64
55755;BME280;41674;52.290;-1.474;2022-09-23T11:50:17;101023.23;;;16.96;55.77
55755;BME280;41674;52.290;-1.474;2022-09-23T11:52:44;101014.35;;;17.37;54.96
55755;BME280;41674;52.290;-1.474;2022-09-23T11:55:14;101014.26;;;17.97;54.03
55755;BME280;41674;52.290;-1.474;2022-09-23T11:57:42;101012.04;;;17.96;55.30
55755;BME280;41674;52.290;-1.474;2022-09-23T12:00:17;101012.34;;;18.42;53.13
55755;BME280;41674;52.290;-1.474;2022-09-23T12:02:46;101007.86;;;19.11;50.72
55755;BME280;41674;52.290;-1.474;2022-09-23T12:05:10;101004.44;;;19.01;49.02
55755;BME280;41674;52.290;-1.474;2022-09-23T12:07:45;101001.49;;;19.54;48.71
55755;BME280;41674;52.290;-1.474;2022-09-23T12:10:08;101001.54;;;19.28;49.90
55755;BME280;41674;52.290;-1.474;2022-09-23T12:12:40;101000.85;;;20.43;48.24
55755;BME280;41674;52.290;-1.474;2022-09-23T12:15:14;101001.70;;;21.06;45.95
55755;BME280;41674;52.290;-1.474;2022-09-23T12:17:52;101000.11;;;20.89;44.33
55755;BME280;41674;52.290;-1.474;2022-09-23T12:20:19;100993.17;;;19.99;44.99
55755;BME280;41674;52.290;-1.474;2022-09-23T12:22:47;100991.01;;;20.09;46.78
55755;BME280;41674;52.290;-1.474;2022-09-23T12:25:18;100984.46;;;20.54;46.46
55755;BME280;41674;52.290;-1.474;2022-09-23T12:27:36;100986.37;;;21.29;47.04
55755;BME280;41674;52.290;-1.474;2022-09-23T12:30:11;100983.97;;;20.67;46.96
55755;BME280;41674;52.290;-1.474;2022-09-23T12:32:33;100983.55;;;20.30;45.91
55755;BME280;41674;52.290;-1.474;2022-09-23T12:35:02;100983.00;;;20.05;47.74
55755;BME280;41674;52.290;-1.474;2022-09-23T12:37:35;100982.58;;;21.32;46.26
55755;BME280;41674;52.290;-1.474;2022-09-23T12:40:07;100970.78;;;21.56;42.55
55755;BME280;41674;52.290;-1.474;2022-09-23T12:42:31;100962.95;;;22.40;41.24
55755;BME280;41674;52.290;-1.474;2022-09-23T12:47:36;100960.02;;;22.91;39.43
55755;BME280;41674;52.290;-1.474;2022-09-23T12:49:59;100966.36;;;21.48;40.56
55755;BME280;41674;52.290;-1.474;2022-09-23T12:52:34;100967.25;;;20.35;42.13
55755;BME280;41674;52.290;-1.474;2022-09-23T12:57:38;100970.61;;;18.61;46.50
55755;BME280;41674;52.290;-1.474;2022-09-23T12:59:58;100961.55;;;19.14;45.12
55755;BME280;41674;52.290;-1.474;2022-09-23T13:02:31;100958.67;;;20.46;43.79
55755;BME280;41674;52.290;-1.474;2022-09-23T13:05:02;100956.09;;;20.43;42.50
55755;BME280;41674;52.290;-1.474;2022-09-23T13:07:27;100959.70;;;20.66;43.20
55755;BME280;41674;52.290;-1.474;2022-09-23T13:10:04;100949.47;;;22.21;42.75
55755;BME280;41674;52.290;-1.474;2022-09-23T13:12:28;100945.87;;;22.18;41.75
55755;BME280;41674;52.290;-1.474;2022-09-23T13:14:57;100943.62;;;22.19;38.67
55755;BME280;41674;52.290;-1.474;2022-09-23T13:17:28;100945.33;;;22.74;41.10
55755;BME280;41674;52.290;-1.474;2022-09-23T13:20:02;100942.55;;;23.05;39.77